createdAt,value
2018-10-05T00:03:45.936Z,9.93
2018-10-05T00:08:39.601Z,10.28
2018-10-05T00:13:36.819Z,10.53
2018-10-05T00:18:30.293Z,11.09
2018-10-05T00:23:23.528Z,11.37
2018-10-05T00:28:17.223Z,11.34
2018-10-05T00:33:10.867Z,11.31
2018-10-05T00:38:04.528Z,11.35
2018-10-05T00:42:58.414Z,11.33
2018-10-05T00:47:51.578Z,11.25
2018-10-05T00:52:45.200Z,11.17
2018-10-05T00:57:38.407Z,10.95
2018-10-05T01:02:32.016Z,10.95
2018-10-05T01:07:25.334Z,10.90
2018-10-05T01:12:18.714Z,10.65
2018-10-05T01:17:12.130Z,10.41
2018-10-05T01:22:05.643Z,10.78
2018-10-05T01:26:59.400Z,10.58
2018-10-05T01:31:52.654Z,10.53
2018-10-05T01:36:46.084Z,10.38
2018-10-05T01:41:39.390Z,10.37
2018-10-05T01:46:33.038Z,10.52
2018-10-05T01:51:34.599Z,10.44
2018-10-05T01:56:28.062Z,10.34
2018-10-05T02:01:21.964Z,10.28
2018-10-05T02:06:15.548Z,10.10
2018-10-05T02:11:09.475Z,10.06
2018-10-05T02:16:02.942Z,10.12
2018-10-05T02:20:57.484Z,10.10
2018-10-05T02:25:51.949Z,9.89
2018-10-05T02:30:45.795Z,9.73
2018-10-05T02:35:39.902Z,9.59
2018-10-05T02:40:34.546Z,9.47
2018-10-05T02:45:28.275Z,9.34
2018-10-05T02:50:21.538Z,9.31
2018-10-05T02:55:15.436Z,9.44
2018-10-05T03:00:18.929Z,9.40
2018-10-05T03:05:13.137Z,9.42
2018-10-05T03:10:07.275Z,9.42
2018-10-05T03:15:00.580Z,9.46
2018-10-05T03:19:54.075Z,9.64
2018-10-05T03:24:47.397Z,9.63
2018-10-05T03:29:40.990Z,9.45
2018-10-05T03:34:34.288Z,9.34
2018-10-05T03:39:27.480Z,9.52
2018-10-05T03:44:20.794Z,9.61
2018-10-05T03:49:14.425Z,9.62
2018-10-05T03:54:08.217Z,9.54
2018-10-05T03:59:01.937Z,9.63
2018-10-05T04:03:55.308Z,9.57
2018-10-05T04:08:48.623Z,9.45
2018-10-05T04:13:41.880Z,9.31
2018-10-05T04:18:35.168Z,9.35
2018-10-05T04:23:29.044Z,9.44
2018-10-05T04:28:22.258Z,9.55
2018-10-05T04:33:15.773Z,9.44
2018-10-05T04:38:09.493Z,9.66
2018-10-05T04:43:02.828Z,9.80
2018-10-05T04:47:56.554Z,9.99
2018-10-05T04:52:50.519Z,9.86
2018-10-05T04:57:47.069Z,9.92
2018-10-05T05:02:41.040Z,10.02
2018-10-05T05:07:34.347Z,10.04
2018-10-05T05:12:27.695Z,10.04
2018-10-05T05:17:21.017Z,10.16
2018-10-05T05:22:14.269Z,10.31
2018-10-05T05:27:07.767Z,10.34
2018-10-05T05:32:01.133Z,10.36
2018-10-05T05:36:54.379Z,10.56
2018-10-05T05:41:47.682Z,10.71
2018-10-05T05:46:41.060Z,10.84
2018-10-05T05:51:36.764Z,11.06
2018-10-05T05:56:30.023Z,11.20
2018-10-05T06:01:23.945Z,11.36
2018-10-05T06:06:17.649Z,11.46
2018-10-05T06:11:10.934Z,11.66
2018-10-05T06:16:04.264Z,11.96
2018-10-05T06:20:58.389Z,12.14
2018-10-05T06:25:51.653Z,12.27
2018-10-05T06:30:45.037Z,12.51
2018-10-05T06:35:38.310Z,12.72
2018-10-05T06:40:31.771Z,12.91
2018-10-05T06:45:25.598Z,13.08
2018-10-05T06:50:19.170Z,13.29
2018-10-05T06:55:12.556Z,13.48
2018-10-05T07:00:06.742Z,13.84
2018-10-05T07:05:00.029Z,13.96
2018-10-05T07:09:53.285Z,14.14
2018-10-05T07:14:46.595Z,14.37
2018-10-05T07:19:39.920Z,14.56
2018-10-05T07:24:33.197Z,14.75
2018-10-05T07:29:26.402Z,14.92
2018-10-05T07:34:19.701Z,15.26
2018-10-05T07:39:13.039Z,15.39
2018-10-05T07:44:06.331Z,15.43
2018-10-05T07:48:59.711Z,15.75
2018-10-05T07:53:53.124Z,15.75
2018-10-05T07:58:46.434Z,15.88
2018-10-05T08:03:39.906Z,15.89
2018-10-05T08:08:33.147Z,16.01
2018-10-05T08:13:26.437Z,15.95
2018-10-05T08:18:19.764Z,16.22
2018-10-05T08:23:13.089Z,16.41
2018-10-05T08:28:06.292Z,16.24
2018-10-05T08:32:59.569Z,16.42
2018-10-05T08:37:52.867Z,16.39
2018-10-05T08:42:46.181Z,16.49
2018-10-05T08:47:39.544Z,16.60
2018-10-05T08:52:33.015Z,16.71
2018-10-05T08:57:26.232Z,16.92
2018-10-05T09:02:19.476Z,17.15
2018-10-05T09:07:12.836Z,17.23
2018-10-05T09:12:06.107Z,17.15
2018-10-05T09:16:59.855Z,17.30
2018-10-05T09:21:53.094Z,17.41
2018-10-05T09:26:46.450Z,17.31
2018-10-05T09:31:39.790Z,17.42
2018-10-05T09:36:34.593Z,17.66
2018-10-05T09:41:28.268Z,17.85
2018-10-05T09:46:21.457Z,18.00
2018-10-05T09:51:15.044Z,17.95
2018-10-05T09:56:08.308Z,17.81
2018-10-05T10:01:06.931Z,17.82
2018-10-05T10:06:00.673Z,17.83
2018-10-05T10:10:53.871Z,17.91
2018-10-05T10:15:47.179Z,17.98
2018-10-05T10:20:41.164Z,17.95
2018-10-05T10:25:35.048Z,17.88
2018-10-05T10:30:28.387Z,18.04
2018-10-05T10:35:21.743Z,18.19
2018-10-05T10:40:15.449Z,18.15
2018-10-05T10:45:09.362Z,18.02
2018-10-05T10:50:02.601Z,18.15
2018-10-05T10:54:55.897Z,18.25
2018-10-05T10:59:49.140Z,18.40
2018-10-05T11:04:42.555Z,18.36
2018-10-05T11:09:35.788Z,18.26
2018-10-05T11:14:29.012Z,18.48
2018-10-05T11:19:22.299Z,18.67
2018-10-05T11:24:15.865Z,18.65
2018-10-05T11:29:10.429Z,18.44
2018-10-05T11:34:03.571Z,18.36
2018-10-05T11:38:56.774Z,18.55
2018-10-05T11:43:50.155Z,18.81
2018-10-05T11:48:43.421Z,19.03
2018-10-05T11:53:36.816Z,18.80
2018-10-05T11:58:30.279Z,18.75
2018-10-05T12:03:23.728Z,18.78
2018-10-05T12:08:17.185Z,18.85
2018-10-05T12:13:10.497Z,18.99
2018-10-05T12:18:06.082Z,18.87
2018-10-05T12:22:59.415Z,18.96
2018-10-05T12:27:52.616Z,19.18
2018-10-05T12:32:45.874Z,19.14
2018-10-05T12:37:39.148Z,18.93
2018-10-05T12:42:32.427Z,18.89
2018-10-05T12:47:25.790Z,18.86
2018-10-05T12:52:19.037Z,18.84
2018-10-05T12:57:12.255Z,18.77
2018-10-05T13:02:06.021Z,18.83
2018-10-05T13:06:59.491Z,18.96
2018-10-05T13:11:52.742Z,19.05
2018-10-05T13:16:46.027Z,19.19
2018-10-05T13:21:39.232Z,19.18
2018-10-05T13:26:33.023Z,19.04
2018-10-05T13:31:26.342Z,19.00
2018-10-05T13:36:19.624Z,18.82
2018-10-05T13:41:12.996Z,18.86
2018-10-05T13:46:06.335Z,18.89
2018-10-05T13:50:59.662Z,18.98
2018-10-05T13:55:53.935Z,19.06
2018-10-05T14:00:47.122Z,18.83
2018-10-05T14:05:40.437Z,18.73
2018-10-05T14:10:33.749Z,18.72
2018-10-05T14:15:26.924Z,18.73
2018-10-05T14:20:20.445Z,18.68
2018-10-05T14:25:13.953Z,18.70
2018-10-05T14:30:07.818Z,18.55
2018-10-05T14:35:01.506Z,18.49
2018-10-05T14:39:54.891Z,18.34
2018-10-05T14:44:48.287Z,18.26
2018-10-05T14:49:41.648Z,18.31
2018-10-05T14:54:35.188Z,18.20
2018-10-05T15:04:46.737Z,18.25
2018-10-05T15:09:40.148Z,18.20
2018-10-05T15:14:33.308Z,18.00
2018-10-05T15:19:26.630Z,17.72
2018-10-05T15:24:19.989Z,17.66
2018-10-05T15:29:13.344Z,17.46
2018-10-05T15:34:06.674Z,17.30
2018-10-05T15:38:59.942Z,17.16
2018-10-05T15:43:53.153Z,17.04
2018-10-05T15:48:46.608Z,16.92
2018-10-05T15:53:39.947Z,16.70
2018-10-05T15:58:33.477Z,16.49
2018-10-05T16:03:26.962Z,16.45
2018-10-05T16:08:23.881Z,16.33
2018-10-05T16:13:17.681Z,16.28
2018-10-05T16:18:11.910Z,16.09
2018-10-05T16:23:05.574Z,15.97
2018-10-05T16:27:59.173Z,15.80
2018-10-05T16:32:52.660Z,15.53
2018-10-05T16:37:46.018Z,15.54
2018-10-05T16:42:39.304Z,15.58
2018-10-05T16:47:33.496Z,15.47
2018-10-05T16:52:26.933Z,15.28
2018-10-05T16:57:20.362Z,15.20
2018-10-05T17:02:13.739Z,15.23
2018-10-05T17:07:07.381Z,15.10
2018-10-05T17:12:00.700Z,14.98
2018-10-05T17:16:55.199Z,14.80
2018-10-05T17:21:49.152Z,14.87
2018-10-05T17:26:42.697Z,14.69
2018-10-05T17:31:36.896Z,14.67
2018-10-05T17:36:30.444Z,14.72
2018-10-05T17:41:24.379Z,14.64
2018-10-05T17:46:18.110Z,14.45
2018-10-05T17:51:11.550Z,14.48
2018-10-05T17:56:05.485Z,14.52
2018-10-05T18:00:59.131Z,14.32
2018-10-05T18:05:52.488Z,14.17
2018-10-05T18:10:46.037Z,14.20
2018-10-05T18:15:39.452Z,14.05
2018-10-05T18:20:33.780Z,14.07
2018-10-05T18:25:27.155Z,14.21
2018-10-05T18:30:20.547Z,14.24
2018-10-05T18:35:13.923Z,14.13
2018-10-05T18:40:09.117Z,13.97
2018-10-05T18:45:02.758Z,14.00
2018-10-05T18:49:56.307Z,13.92
2018-10-05T18:54:49.828Z,13.88
2018-10-05T18:59:43.287Z,13.79
2018-10-05T19:04:36.767Z,13.67
2018-10-05T19:09:30.226Z,13.44
2018-10-05T19:14:24.122Z,13.20
2018-10-05T19:19:17.644Z,12.93
2018-10-05T19:24:11.114Z,12.73
2018-10-05T19:29:05.439Z,12.54
2018-10-05T19:33:59.024Z,12.39
2018-10-05T19:38:52.603Z,12.18
2018-10-05T19:43:46.559Z,12.03
2018-10-05T19:48:39.880Z,11.99
2018-10-05T19:53:33.278Z,11.75
2018-10-05T19:58:27.622Z,11.69
2018-10-05T20:03:21.138Z,11.60
2018-10-05T20:08:14.498Z,11.56
2018-10-05T20:13:08.474Z,11.37
2018-10-05T20:18:02.333Z,11.40
2018-10-05T20:22:55.768Z,11.30
2018-10-05T20:27:49.775Z,11.35
2018-10-05T20:32:43.971Z,11.20
2018-10-05T20:37:37.578Z,11.21
2018-10-05T20:42:31.380Z,11.19
2018-10-05T20:47:25.458Z,11.13
2018-10-05T20:52:18.881Z,11.00
2018-10-05T20:57:13.024Z,10.90
2018-10-05T21:02:06.903Z,10.91
2018-10-05T21:07:00.503Z,10.89
2018-10-05T21:11:54.167Z,10.76
2018-10-05T21:16:47.632Z,10.73
2018-10-05T21:21:41.559Z,10.81
2018-10-05T21:26:35.314Z,11.08
2018-10-05T21:31:28.728Z,11.31
2018-10-05T21:36:22.585Z,11.37
2018-10-05T21:41:16.249Z,11.43
2018-10-05T21:46:09.656Z,11.51
2018-10-05T21:51:03.578Z,11.47
2018-10-05T21:55:56.928Z,11.44
2018-10-05T22:00:50.374Z,11.19
2018-10-05T22:05:43.773Z,11.14
2018-10-05T22:10:37.361Z,11.10
2018-10-05T22:15:30.706Z,10.95
2018-10-05T22:20:24.115Z,10.93
2018-10-05T22:25:17.559Z,10.95
2018-10-05T22:30:12.216Z,10.83
2018-10-05T22:35:05.628Z,10.94
2018-10-05T22:39:59.880Z,10.82
2018-10-05T22:44:53.207Z,10.80
2018-10-05T22:49:47.518Z,10.66
2018-10-05T22:54:41.375Z,10.66
2018-10-05T22:59:35.081Z,10.58
2018-10-05T23:04:29.558Z,10.54
2018-10-05T23:09:23.358Z,10.52
2018-10-05T23:14:16.742Z,10.48
2018-10-05T23:19:10.080Z,10.38
2018-10-05T23:24:03.514Z,10.46
2018-10-05T23:28:57.442Z,10.45
2018-10-05T23:33:50.823Z,10.37
2018-10-05T23:38:45.159Z,10.26
2018-10-05T23:43:39.090Z,10.26
2018-10-05T23:48:34.501Z,10.33
2018-10-05T23:53:28.370Z,10.28
2018-10-05T23:58:22.731Z,10.45
